Time;durP1;ratioP1;P1;durP2;ratioP2;P2;SDS_P1;SDS_P2;PMS_P1;PMS_P2;Temp;Humidity;BMP_temperature;BMP_pressure;BME280_temperature;BME280_humidity;BME280_pressure;Samples;Min_cycle;Max_cycle;Signal;HPM_P1;HPM_P2
2022/03/12 00:00:35;;;;;;;12.87;7.47;;;2.30;41.60;;;;;;5013559;28;20233;-67
2022/03/12 00:03:01;;;;;;;10.57;6.83;;;2.20;41.60;;;;;;5008603;28;20693;-67
2022/03/12 00:05:29;;;;;;;11.73;8.13;;;2.20;41.40;;;;;;5008789;28;20176;-68
2022/03/12 00:07:54;;;;;;;9.63;7.17;;;2.20;41.50;;;;;;5007267;28;20279;-67
2022/03/12 00:10:22;;;;;;;12.33;7.17;;;2.30;41.30;;;;;;5012630;28;20267;-69
2022/03/12 00:12:48;;;;;;;10.03;6.67;;;2.20;41.60;;;;;;5020730;28;20203;-67
2022/03/12 00:15:14;;;;;;;13.37;7.77;;;2.20;41.80;;;;;;5022273;28;20193;-68
2022/03/12 00:17:45;;;;;;;12.00;6.77;;;2.20;41.60;;;;;;5008907;28;20599;-68
2022/03/12 00:20:16;;;;;;;11.27;5.73;;;2.20;41.40;;;;;;4999382;28;20560;-70
2022/03/12 00:22:46;;;;;;;12.27;7.67;;;2.20;41.70;;;;;;5002518;28;20511;-71
2022/03/12 00:25:13;;;;;;;11.90;6.93;;;2.20;41.50;;;;;;5017125;28;20227;-68
2022/03/12 00:27:41;;;;;;;14.83;8.43;;;2.20;41.80;;;;;;4995213;28;20219;-72
2022/03/12 00:30:11;;;;;;;13.17;7.47;;;2.10;41.70;;;;;;5012232;28;20227;-72
2022/03/12 00:32:37;;;;;;;15.80;8.00;;;2.10;41.80;;;;;;5008924;28;20227;-72
2022/03/12 00:35:10;;;;;;;12.50;8.37;;;2.10;41.90;;;;;;5011546;28;20285;-71
2022/03/12 00:37:37;;;;;;;13.97;7.43;;;2.10;42.00;;;;;;5014747;28;20207;-71
2022/03/12 00:40:04;;;;;;;14.93;8.03;;;2.10;42.30;;;;;;5014571;28;20976;-71
2022/03/12 00:42:30;;;;;;;11.80;7.80;;;2.10;42.10;;;;;;5011653;28;20181;-70
2022/03/12 00:44:56;;;;;;;12.33;8.23;;;2.10;42.10;;;;;;5025000;28;20286;-72
2022/03/12 00:47:22;;;;;;;16.70;9.47;;;2.00;42.30;;;;;;5016921;28;20286;-70
2022/03/12 00:49:47;;;;;;;19.03;8.10;;;2.00;42.40;;;;;;5005790;28;20215;-70
2022/03/12 00:52:13;;;;;;;10.00;7.27;;;2.00;42.70;;;;;;5014659;28;20339;-70
2022/03/12 00:54:39;;;;;;;19.43;9.13;;;2.00;42.50;;;;;;5016253;28;20207;-72
2022/03/12 00:57:04;;;;;;;14.43;8.43;;;2.00;42.60;;;;;;5023879;28;20233;-77
2022/03/12 00:59:30;;;;;;;13.30;8.87;;;2.00;42.50;;;;;;5005660;28;20659;-71
2022/03/12 01:01:56;;;;;;;12.13;7.07;;;1.90;43.10;;;;;;5013179;28;20185;-70
2022/03/12 01:04:21;;;;;;;18.53;8.33;;;1.90;42.70;;;;;;5008544;28;20568;-73
2022/03/12 01:06:47;;;;;;;10.73;7.43;;;1.90;42.70;;;;;;5002263;28;20689;-70
2022/03/12 01:09:12;;;;;;;10.70;7.37;;;1.90;43.00;;;;;;5008398;28;20195;-70
2022/03/12 01:11:39;;;;;;;17.03;8.80;;;2.00;42.70;;;;;;5012605;28;20298;-75
2022/03/12 01:14:06;;;;;;;17.20;8.50;;;1.90;43.10;;;;;;5004645;28;20203;-67
2022/03/12 01:16:33;;;;;;;16.13;9.17;;;1.90;43.20;;;;;;5006303;28;20188;-71
2022/03/12 01:18:58;;;;;;;13.60;8.23;;;1.90;42.90;;;;;;5007115;28;20274;-70
2022/03/12 01:21:24;;;;;;;13.23;8.20;;;1.80;43.20;;;;;;5009402;28;20183;-70
2022/03/12 01:23:50;;;;;;;12.67;7.80;;;1.70;43.90;;;;;;5013486;28;20207;-71
2022/03/12 01:26:18;;;;;;;11.50;8.67;;;1.70;43.80;;;;;;5006140;28;20236;-74
2022/03/12 01:28:44;;;;;;;17.50;8.43;;;1.80;43.90;;;;;;5009711;28;20215;-71
2022/03/12 01:31:09;;;;;;;14.93;7.90;;;1.70;43.60;;;;;;5005860;28;20192;-71
2022/03/12 01:33:35;;;;;;;14.80;9.97;;;1.70;43.80;;;;;;5011298;28;20204;-70
2022/03/12 01:36:01;;;;;;;16.33;8.63;;;1.60;44.20;;;;;;5014247;28;20212;-72
2022/03/12 01:38:47;;;;;;;18.47;9.97;;;1.70;44.10;;;;;;5011759;28;20234;-74
2022/03/12 01:41:13;;;;;;;17.80;9.87;;;1.60;44.30;;;;;;5009864;28;20176;-72
2022/03/12 01:43:39;;;;;;;10.60;7.37;;;1.50;44.70;;;;;;5006646;28;20208;-72
2022/03/12 01:46:09;;;;;;;16.17;9.17;;;1.70;44.20;;;;;;5005168;28;20728;-71
2022/03/12 01:48:36;;;;;;;13.53;9.07;;;1.60;44.10;;;;;;5010443;28;21055;-70
2022/03/12 01:51:02;;;;;;;20.07;9.20;;;1.60;44.20;;;;;;5008507;28;20242;-70
2022/03/12 01:53:28;;;;;;;11.97;8.07;;;1.50;44.20;;;;;;5007283;28;20199;-73
2022/03/12 01:55:54;;;;;;;16.47;8.73;;;1.50;44.30;;;;;;5014495;28;20180;-71
2022/03/12 01:58:20;;;;;;;13.07;8.43;;;1.50;44.50;;;;;;5011959;28;20223;-71
2022/03/12 02:00:48;;;;;;;15.33;9.03;;;1.60;44.30;;;;;;5017434;28;20192;-70
2022/03/12 02:03:18;;;;;;;14.37;8.83;;;1.60;44.40;;;;;;5009218;28;20615;-72
2022/03/12 02:05:44;;;;;;;13.70;8.77;;;1.40;45.10;;;;;;5009337;28;20212;-72
2022/03/12 02:08:14;;;;;;;14.37;8.43;;;1.40;45.10;;;;;;5011477;28;20225;-71
2022/03/12 02:10:41;;;;;;;14.80;8.80;;;1.30;45.40;;;;;;5012662;28;20191;-71
2022/03/12 02:13:07;;;;;;;18.53;9.60;;;1.30;45.60;;;;;;5006238;28;20208;-78
2022/03/12 02:15:32;;;;;;;16.63;9.27;;;1.30;45.60;;;;;;5010792;28;20268;-74
2022/03/12 02:17:58;;;;;;;15.43;8.87;;;1.30;45.50;;;;;;5005876;28;20216;-77
2022/03/12 02:20:23;;;;;;;14.57;9.00;;;1.20;46.00;;;;;;5013137;28;20211;-70
2022/03/12 02:22:54;;;;;;;11.87;7.60;;;1.20;46.00;;;;;;5013315;28;20195;-69
2022/03/12 02:25:31;;;;;;;12.90;8.23;;;1.40;45.70;;;;;;5013639;28;20207;-71
2022/03/12 02:27:59;;;;;;;13.97;8.13;;;1.20;45.70;;;;;;5015030;28;20612;-71
2022/03/12 02:30:34;;;;;;;13.63;7.90;;;1.20;46.00;;;;;;5016903;28;20257;-70
2022/03/12 02:33:04;;;;;;;14.73;8.83;;;1.20;45.90;;;;;;4997752;28;20195;-71
2022/03/12 02:35:40;;;;;;;17.87;9.37;;;1.10;46.00;;;;;;5016345;28;20208;-70
2022/03/12 02:38:09;;;;;;;14.57;8.93;;;1.10;45.90;;;;;;5004467;28;20207;-71
2022/03/12 02:40:35;;;;;;;15.13;8.43;;;1.10;46.00;;;;;;5018324;28;20211;-78
2022/03/12 02:43:01;;;;;;;22.20;8.40;;;1.10;46.20;;;;;;5019184;28;20230;-83
2022/03/12 02:45:28;;;;;;;15.47;8.07;;;1.10;46.20;;;;;;5013166;28;20241;-83
2022/03/12 02:47:55;;;;;;;13.07;8.07;;;1.10;45.80;;;;;;5016352;28;20198;-83
2022/03/12 02:50:21;;;;;;;13.40;8.50;;;1.00;46.20;;;;;;5010386;28;20204;-85
2022/03/12 02:52:47;;;;;;;18.30;9.43;;;1.10;46.10;;;;;;5014503;28;20199;-75
2022/03/12 02:55:17;;;;;;;12.93;8.47;;;1.00;46.40;;;;;;5011632;28;20211;-81
2022/03/12 02:57:46;;;;;;;17.13;9.20;;;1.00;46.40;;;;;;5013703;28;20219;-75
2022/03/12 03:00:13;;;;;;;14.60;7.93;;;1.00;46.30;;;;;;5014996;28;20223;-74
2022/03/12 03:02:40;;;;;;;18.47;8.87;;;1.00;46.10;;;;;;5015568;28;20184;-80
2022/03/12 03:05:16;;;;;;;16.63;9.87;;;1.00;46.40;;;;;;5013961;28;20199;-82
2022/03/12 03:07:45;;;;;;;16.50;8.70;;;0.90;46.50;;;;;;5012954;28;20233;-72
2022/03/12 03:10:19;;;;;;;15.80;9.20;;;0.90;46.40;;;;;;5010922;28;20567;-79
2022/03/12 03:12:45;;;;;;;16.93;9.17;;;0.90;46.50;;;;;;5014038;28;20556;-78
2022/03/12 03:15:11;;;;;;;15.97;9.33;;;0.80;46.60;;;;;;5010837;28;20571;-74
2022/03/12 03:17:40;;;;;;;16.83;9.00;;;0.80;46.70;;;;;;5009408;28;20238;-82
2022/03/12 03:20:06;;;;;;;16.07;9.33;;;0.80;46.40;;;;;;5013394;28;20279;-79
2022/03/12 03:22:31;;;;;;;15.20;9.80;;;0.90;46.30;;;;;;5006616;28;20189;-83
2022/03/12 03:24:57;;;;;;;12.00;8.13;;;0.90;46.40;;;;;;5013179;28;20211;-76
2022/03/12 03:27:22;;;;;;;13.07;8.93;;;0.80;46.70;;;;;;5005925;28;20313;-81
2022/03/12 03:29:47;;;;;;;14.83;9.63;;;0.80;46.90;;;;;;5013467;28;20211;-80
2022/03/12 03:32:13;;;;;;;20.33;9.87;;;0.70;46.80;;;;;;5006648;28;20558;-79
2022/03/12 03:34:39;;;;;;;11.43;8.17;;;0.80;46.40;;;;;;5008174;28;20682;-69
2022/03/12 03:37:05;;;;;;;11.10;7.80;;;0.80;46.30;;;;;;5010253;28;20498;-77
2022/03/12 03:39:30;;;;;;;18.50;7.40;;;0.80;46.50;;;;;;5005724;28;20179;-76
2022/03/12 03:41:56;;;;;;;19.43;9.33;;;0.70;46.30;;;;;;5012619;28;20276;-76
2022/03/12 03:44:27;;;;;;;15.60;8.87;;;0.70;46.50;;;;;;5011965;28;20214;-78
2022/03/12 03:46:53;;;;;;;18.63;8.70;;;0.70;46.90;;;;;;5008257;28;20660;-77
2022/03/12 03:49:19;;;;;;;16.83;9.00;;;0.80;46.30;;;;;;5017680;28;20183;-77
2022/03/12 03:51:45;;;;;;;14.53;9.23;;;0.70;46.60;;;;;;4991556;28;20531;-77
2022/03/12 03:54:11;;;;;;;12.83;8.57;;;0.60;47.00;;;;;;5007297;28;20195;-77
2022/03/12 03:56:37;;;;;;;18.07;8.27;;;0.60;46.70;;;;;;5014584;28;20676;-76
2022/03/12 03:59:04;;;;;;;13.07;8.90;;;0.70;46.60;;;;;;5007149;28;20222;-76
2022/03/12 04:01:29;;;;;;;18.67;10.03;;;0.60;47.20;;;;;;5010593;28;20197;-75
2022/03/12 04:03:56;;;;;;;11.43;8.20;;;0.60;47.20;;;;;;5021609;28;20195;-76
2022/03/12 04:06:22;;;;;;;17.13;7.80;;;0.60;46.90;;;;;;5005547;28;20229;-77
2022/03/12 04:08:49;;;;;;;16.97;9.27;;;0.60;46.90;;;;;;5011016;28;20257;-78
2022/03/12 04:11:17;;;;;;;19.33;9.53;;;0.50;47.00;;;;;;5016324;28;20240;-74
2022/03/12 04:13:43;;;;;;;18.67;8.87;;;0.50;47.00;;;;;;5014668;28;20200;-75
2022/03/12 04:16:10;;;;;;;13.43;8.17;;;0.40;47.10;;;;;;5011340;28;20192;-75
2022/03/12 04:18:37;;;;;;;15.80;8.33;;;0.50;47.40;;;;;;5012924;28;20244;-74
2022/03/12 04:21:05;;;;;;;16.43;8.63;;;0.50;47.50;;;;;;5009695;28;20215;-74
2022/03/12 04:23:30;;;;;;;13.43;8.73;;;0.50;47.80;;;;;;5012430;28;20768;-74
2022/03/12 04:25:58;;;;;;;16.03;9.27;;;0.40;47.40;;;;;;5011771;28;20246;-74
2022/03/12 04:28:27;;;;;;;10.70;6.63;;;0.40;47.70;;;;;;5018238;28;20207;-74
2022/03/12 04:30:52;;;;;;;15.53;8.00;;;0.30;47.50;;;;;;5009373;28;20187;-74
2022/03/12 04:33:21;;;;;;;13.07;8.53;;;0.50;47.40;;;;;;5016057;28;20200;-74
2022/03/12 04:35:48;;;;;;;13.40;8.17;;;0.30;47.70;;;;;;5004972;28;20250;-73
2022/03/12 04:38:14;;;;;;;16.67;9.73;;;0.30;48.00;;;;;;5012181;28;20388;-80
2022/03/12 04:40:43;;;;;;;14.57;8.47;;;0.30;48.10;;;;;;5008400;28;20192;-78
2022/03/12 04:43:11;;;;;;;16.73;8.07;;;0.30;48.00;;;;;;5017937;28;20206;-75
2022/03/12 04:45:37;;;;;;;14.07;8.33;;;0.20;48.00;;;;;;5016982;28;20206;-75
2022/03/12 04:48:03;;;;;;;17.57;8.73;;;0.20;48.10;;;;;;5016627;28;20209;-74
2022/03/12 04:50:29;;;;;;;15.20;8.40;;;0.20;48.10;;;;;;5010068;28;20185;-74
2022/03/12 04:52:58;;;;;;;14.73;7.90;;;0.30;47.90;;;;;;5023404;28;20417;-72
2022/03/12 04:55:26;;;;;;;13.03;8.43;;;0.30;47.80;;;;;;5008329;28;20208;-74
2022/03/12 04:57:52;;;;;;;18.40;9.17;;;0.30;47.70;;;;;;5007912;28;20294;-74
2022/03/12 05:00:29;;;;;;;14.10;8.37;;;0.30;47.80;;;;;;5008456;28;20705;-75
2022/03/12 05:03:03;;;;;;;14.83;8.83;;;0.20;48.20;;;;;;5005891;28;20287;-75
2022/03/12 05:05:29;;;;;;;16.33;8.10;;;0.10;48.20;;;;;;5004138;28;20305;-74
2022/03/12 05:07:58;;;;;;;16.10;9.17;;;0.20;48.10;;;;;;5018733;28;20196;-75
2022/03/12 05:10:24;;;;;;;20.60;8.87;;;0.10;48.10;;;;;;5007963;28;20192;-74
2022/03/12 05:12:50;;;;;;;15.90;9.60;;;0.10;48.00;;;;;;5014816;28;20282;-75
2022/03/12 05:15:17;;;;;;;13.80;8.90;;;0.10;48.10;;;;;;5008152;28;20281;-76
2022/03/12 05:17:46;;;;;;;14.53;8.87;;;0.10;48.30;;;;;;5005682;28;20220;-77
2022/03/12 05:20:18;;;;;;;13.87;7.90;;;0.20;48.20;;;;;;5007360;28;20192;-77
2022/03/12 05:22:43;;;;;;;13.80;9.27;;;0.10;48.10;;;;;;5002266;28;20257;-76
2022/03/12 05:25:10;;;;;;;15.83;9.00;;;0.10;48.30;;;;;;5017409;28;20211;-77
2022/03/12 05:27:35;;;;;;;14.73;10.17;;;0.10;48.20;;;;;;5018374;28;20231;-75
2022/03/12 05:30:01;;;;;;;17.73;8.83;;;0.10;48.20;;;;;;5013148;28;20218;-75
2022/03/12 05:32:26;;;;;;;13.53;8.03;;;0.20;48.10;;;;;;5006900;28;20200;-77
2022/03/12 05:34:52;;;;;;;15.33;9.90;;;0.20;48.00;;;;;;5020232;28;20736;-75
2022/03/12 05:37:19;;;;;;;18.60;8.90;;;0.10;48.30;;;;;;5006012;28;20216;-74
2022/03/12 05:39:45;;;;;;;19.83;9.67;;;0.10;48.60;;;;;;5022858;28;20210;-73
2022/03/12 05:42:10;;;;;;;14.93;9.97;;;0.10;48.40;;;;;;5024565;28;20232;-74
2022/03/12 05:44:36;;;;;;;17.40;9.53;;;0.10;48.40;;;;;;5015249;28;20277;-75
2022/03/12 05:47:03;;;;;;;14.27;8.07;;;0.20;48.30;;;;;;5011038;28;20653;-74
2022/03/12 05:49:28;;;;;;;20.80;9.97;;;0.10;48.70;;;;;;5018736;28;20299;-74
2022/03/12 05:51:55;;;;;;;19.37;9.47;;;0.20;48.30;;;;;;5005955;28;20274;-74
2022/03/12 05:54:21;;;;;;;16.70;9.07;;;0.10;48.50;;;;;;5019455;28;20211;-73
2022/03/12 05:56:47;;;;;;;17.80;8.47;;;0.10;48.60;;;;;;5021726;28;20575;-74
2022/03/12 05:59:12;;;;;;;20.83;9.47;;;0.10;48.60;;;;;;5009353;28;20215;-74
2022/03/12 06:01:38;;;;;;;25.67;10.70;;;0.20;48.40;;;;;;5009828;28;20195;-74
2022/03/12 06:04:04;;;;;;;14.63;10.03;;;0.20;48.60;;;;;;5019321;28;20223;-74
2022/03/12 06:06:30;;;;;;;16.80;8.77;;;0.30;48.70;;;;;;4989495;28;20195;-74
2022/03/12 06:08:57;;;;;;;14.63;9.60;;;0.30;48.50;;;;;;5013684;28;20235;-74
2022/03/12 06:11:25;;;;;;;16.67;10.77;;;0.30;48.60;;;;;;5016634;28;20501;-72
2022/03/12 06:13:57;;;;;;;20.10;11.10;;;0.40;48.30;;;;;;5014523;28;20235;-74
2022/03/12 06:16:24;;;;;;;20.43;8.57;;;0.40;48.30;;;;;;5020204;28;20202;-76
2022/03/12 06:18:52;;;;;;;17.37;9.80;;;0.40;48.10;;;;;;5012287;28;20218;-75
2022/03/12 06:21:18;;;;;;;15.23;9.50;;;0.40;48.10;;;;;;4983810;28;20197;-76
2022/03/12 06:23:44;;;;;;;16.20;9.93;;;0.50;48.10;;;;;;5014102;28;20672;-75
2022/03/12 06:26:14;;;;;;;21.57;10.03;;;0.40;48.40;;;;;;5004995;28;20227;-72
2022/03/12 06:28:41;;;;;;;16.70;9.03;;;0.40;48.30;;;;;;5017927;28;20199;-74
2022/03/12 06:31:07;;;;;;;16.07;9.43;;;0.50;48.10;;;;;;5006584;28;20227;-73
2022/03/12 06:33:34;;;;;;;15.13;7.60;;;0.50;48.40;;;;;;5018173;28;20286;-76
2022/03/12 06:36:01;;;;;;;17.50;9.43;;;0.60;48.00;;;;;;5006868;28;20200;-74
2022/03/12 06:38:26;;;;;;;14.87;9.43;;;0.50;48.20;;;;;;5013342;28;20572;-75
2022/03/12 06:40:55;;;;;;;14.80;8.47;;;0.60;48.10;;;;;;4988542;28;20284;-77
2022/03/12 06:43:21;;;;;;;17.73;10.47;;;0.50;48.10;;;;;;5013849;28;20267;-78
2022/03/12 06:45:48;;;;;;;18.30;9.63;;;0.60;48.20;;;;;;5006810;28;20701;-78
2022/03/12 06:48:14;;;;;;;13.77;9.30;;;0.70;48.20;;;;;;5009679;28;20217;-79
2022/03/12 06:50:39;;;;;;;15.00;9.33;;;0.80;47.70;;;;;;5006531;28;20188;-79
2022/03/12 06:53:06;;;;;;;15.20;8.93;;;0.80;48.10;;;;;;5015346;28;20195;-79
2022/03/12 06:55:33;;;;;;;14.03;10.13;;;0.90;47.80;;;;;;5012292;28;20188;-79
2022/03/12 06:57:58;;;;;;;16.50;9.80;;;0.80;47.60;;;;;;5005450;28;20645;-79
2022/03/12 07:00:26;;;;;;;20.80;9.53;;;0.90;47.30;;;;;;5007393;28;20192;-79
2022/03/12 07:02:52;;;;;;;17.87;9.80;;;0.90;47.60;;;;;;5004373;28;20613;-79
2022/03/12 07:05:18;;;;;;;19.63;9.57;;;1.00;47.40;;;;;;5006482;28;20196;-80
2022/03/12 07:07:44;;;;;;;12.07;7.70;;;1.00;47.00;;;;;;5012542;28;20729;-79
2022/03/12 07:10:10;;;;;;;15.83;9.40;;;1.10;47.20;;;;;;5007208;28;20282;-79
2022/03/12 07:12:37;;;;;;;18.37;10.17;;;1.20;47.10;;;;;;5010997;28;20619;-79
2022/03/12 07:15:03;;;;;;;14.17;7.53;;;1.20;47.30;;;;;;5016457;28;20441;-79
2022/03/12 07:17:28;;;;;;;16.20;8.27;;;1.30;47.10;;;;;;5009788;28;20215;-80
2022/03/12 07:19:54;;;;;;;17.13;8.27;;;1.40;47.30;;;;;;5013280;28;20319;-80
2022/03/12 07:22:19;;;;;;;15.20;9.17;;;1.50;46.60;;;;;;5004331;28;20239;-79
2022/03/12 07:24:45;;;;;;;16.40;9.47;;;1.50;46.80;;;;;;5006362;28;20674;-78
2022/03/12 07:27:12;;;;;;;15.53;8.70;;;1.50;46.80;;;;;;5007039;28;20219;-78
2022/03/12 07:29:37;;;;;;;14.60;9.43;;;1.60;46.80;;;;;;5011867;28;20192;-80
2022/03/12 07:32:03;;;;;;;15.87;9.50;;;1.70;46.30;;;;;;5003836;28;20233;-79
2022/03/12 07:34:29;;;;;;;14.83;9.50;;;1.80;46.10;;;;;;5018436;28;20189;-77
2022/03/12 07:36:54;;;;;;;17.67;9.43;;;1.80;45.80;;;;;;5003940;28;20381;-78
2022/03/12 07:39:20;;;;;;;13.37;8.17;;;1.90;45.70;;;;;;5017861;28;20315;-78
2022/03/12 07:41:46;;;;;;;15.97;8.53;;;2.00;45.80;;;;;;5005159;28;20246;-78
2022/03/12 07:44:12;;;;;;;18.63;9.20;;;2.10;45.10;;;;;;5016707;28;20191;-78
2022/03/12 07:46:37;;;;;;;14.63;8.57;;;2.10;45.20;;;;;;5017952;28;20202;-79
2022/03/12 07:49:03;;;;;;;13.57;8.73;;;2.30;44.70;;;;;;5012052;28;20195;-79
2022/03/12 07:51:30;;;;;;;11.53;6.30;;;2.30;44.70;;;;;;5019038;28;20670;-75
2022/03/12 07:53:59;;;;;;;13.50;8.87;;;2.40;44.40;;;;;;5021063;28;20215;-74
2022/03/12 07:56:25;;;;;;;14.17;8.33;;;2.50;44.00;;;;;;5009156;28;20203;-74
2022/03/12 07:58:51;;;;;;;14.40;8.17;;;2.50;43.70;;;;;;5024806;28;20276;-74
2022/03/12 08:01:17;;;;;;;12.83;7.10;;;2.60;43.80;;;;;;5009609;28;20283;-75
2022/03/12 08:03:43;;;;;;;16.77;8.47;;;2.70;43.50;;;;;;5014265;28;20199;-75
2022/03/12 08:06:09;;;;;;;13.90;8.83;;;2.80;43.10;;;;;;5019680;28;20187;-74
2022/03/12 08:08:35;;;;;;;11.50;7.53;;;2.90;43.00;;;;;;5016509;28;20207;-75
2022/03/12 08:13:46;;;;;;;10.67;7.10;;;3.00;42.10;;;;;;5017920;28;20763;-77
2022/03/12 08:16:16;;;;;;;14.60;7.07;;;3.10;42.20;;;;;;5020890;28;20211;-77
2022/03/12 08:18:42;;;;;;;10.87;7.43;;;3.20;41.20;;;;;;5016453;28;20223;-81
2022/03/12 08:21:09;;;;;;;15.70;7.83;;;3.20;41.10;;;;;;5015025;28;20191;-82
2022/03/12 08:23:35;;;;;;;14.50;8.20;;;3.30;40.90;;;;;;5016849;28;20627;-81
2022/03/12 08:26:01;;;;;;;13.53;7.60;;;3.30;40.60;;;;;;5008295;28;20430;-81
2022/03/12 08:28:27;;;;;;;12.70;8.73;;;3.40;40.90;;;;;;5006794;28;20742;-78
2022/03/12 08:30:53;;;;;;;12.90;6.97;;;3.50;40.40;;;;;;5012645;28;20200;-79
2022/03/12 08:33:20;;;;;;;9.17;6.60;;;3.60;40.20;;;;;;5016526;28;20395;-78
2022/03/12 08:35:48;;;;;;;12.67;7.23;;;3.70;40.20;;;;;;5009506;28;20193;-79
2022/03/12 08:38:14;;;;;;;9.50;6.97;;;3.70;39.80;;;;;;5015903;28;20219;-76
2022/03/12 08:40:39;;;;;;;7.80;6.60;;;3.80;39.80;;;;;;5008924;28;20218;-72
2022/03/12 08:43:05;;;;;;;13.87;7.70;;;3.80;39.10;;;;;;5017271;28;20219;-74
2022/03/12 08:45:32;;;;;;;13.47;7.07;;;3.90;38.90;;;;;;5025472;28;20290;-68
2022/03/12 08:47:58;;;;;;;14.93;6.23;;;3.90;38.80;;;;;;5015537;28;20207;-74
2022/03/12 08:50:25;;;;;;;10.47;6.80;;;4.10;38.70;;;;;;5008405;28;20227;-77
2022/03/12 08:52:51;;;;;;;9.83;6.23;;;4.20;38.60;;;;;;5015388;28;20210;-76
2022/03/12 08:55:16;;;;;;;9.67;7.00;;;4.40;37.90;;;;;;5008523;28;20654;-75
2022/03/12 08:57:42;;;;;;;11.97;6.33;;;4.40;38.10;;;;;;5006640;28;20313;-75
2022/03/12 09:00:10;;;;;;;12.30;6.33;;;4.40;37.20;;;;;;5001424;28;20196;-75
2022/03/12 09:02:37;;;;;;;11.80;7.00;;;4.50;36.30;;;;;;4998107;28;20663;-76
2022/03/12 09:05:04;;;;;;;11.63;6.77;;;4.50;36.00;;;;;;5014215;28;20811;-76
2022/03/12 09:07:31;;;;;;;14.60;6.57;;;4.50;35.60;;;;;;5002178;28;20575;-75
2022/03/12 09:09:56;;;;;;;8.90;6.10;;;4.50;36.10;;;;;;5024728;28;20194;-76
2022/03/12 09:12:22;;;;;;;11.07;6.13;;;4.60;35.20;;;;;;5006472;28;20815;-74
2022/03/12 09:14:48;;;;;;;11.03;6.27;;;4.60;35.30;;;;;;5011851;28;20192;-75
2022/03/12 09:17:13;;;;;;;8.73;5.83;;;4.70;35.40;;;;;;5006551;28;20677;-76
2022/03/12 09:19:39;;;;;;;13.17;6.03;;;4.80;34.90;;;;;;5007484;28;20654;-75
2022/03/12 09:22:05;;;;;;;13.60;5.70;;;4.80;35.10;;;;;;5012191;28;20186;-74
2022/03/12 09:24:36;;;;;;;7.43;5.50;;;4.90;35.00;;;;;;5016373;28;20291;-79
2022/03/12 09:27:01;;;;;;;6.80;5.27;;;5.10;35.00;;;;;;4998373;28;20227;-75
2022/03/12 09:29:27;;;;;;;8.17;4.80;;;5.20;34.10;;;;;;5014998;28;20608;-75
2022/03/12 09:31:52;;;;;;;7.37;5.23;;;5.10;33.80;;;;;;5005897;28;20928;-76
2022/03/12 09:34:18;;;;;;;8.37;5.13;;;5.10;33.80;;;;;;5023732;28;20697;-75
2022/03/12 09:36:44;;;;;;;11.37;6.60;;;5.10;34.00;;;;;;5008185;28;20258;-75
2022/03/12 09:39:10;;;;;;;6.33;5.70;;;5.20;34.20;;;;;;5023335;28;20239;-75
2022/03/12 09:41:38;;;;;;;11.47;6.13;;;5.30;35.20;;;;;;5007581;28;20717;-76
2022/03/12 09:44:07;;;;;;;11.23;6.83;;;5.50;34.40;;;;;;5015103;28;20334;-77
2022/03/12 09:46:32;;;;;;;9.43;5.67;;;5.60;34.40;;;;;;5021263;28;20237;-76
2022/03/12 09:48:58;;;;;;;7.37;5.33;;;5.70;34.20;;;;;;5019365;28;20946;-76
2022/03/12 09:51:28;;;;;;;9.63;6.23;;;5.80;33.90;;;;;;5007318;28;20211;-76
2022/03/12 09:53:54;;;;;;;9.17;5.87;;;5.80;33.70;;;;;;5018528;28;20204;-77
2022/03/12 09:56:20;;;;;;;10.70;6.63;;;5.80;34.10;;;;;;5007197;28;20303;-76
2022/03/12 09:58:45;;;;;;;10.13;5.53;;;6.00;33.60;;;;;;5014683;28;20204;-77
2022/03/12 10:01:11;;;;;;;9.97;5.47;;;6.00;33.30;;;;;;5007087;28;20176;-78
2022/03/12 10:03:38;;;;;;;8.50;6.03;;;6.00;33.20;;;;;;5014838;28;20695;-74
2022/03/12 10:06:05;;;;;;;11.97;5.87;;;6.10;33.30;;;;;;5006804;28;20195;-78
2022/03/12 10:08:31;;;;;;;9.70;6.33;;;6.20;32.90;;;;;;5010267;28;20204;-78
2022/03/12 10:10:56;;;;;;;8.70;5.33;;;6.20;33.20;;;;;;5006708;28;20610;-76
2022/03/12 10:13:22;;;;;;;8.50;6.10;;;6.30;33.00;;;;;;5013965;28;20204;-74
2022/03/12 10:15:47;;;;;;;11.30;6.17;;;6.40;32.80;;;;;;5007271;28;20319;-74
2022/03/12 10:18:13;;;;;;;12.07;5.40;;;6.40;32.90;;;;;;5014200;28;20215;-76
2022/03/12 10:20:39;;;;;;;9.57;6.13;;;6.40;32.60;;;;;;5008479;28;20715;-75
2022/03/12 10:23:05;;;;;;;7.63;5.57;;;6.50;32.80;;;;;;5004778;28;20204;-76
2022/03/12 10:25:32;;;;;;;9.37;5.20;;;6.60;32.80;;;;;;5006354;28;20260;-80
2022/03/12 10:27:57;;;;;;;7.40;5.10;;;6.70;33.20;;;;;;5012229;28;20207;-77
2022/03/12 10:30:23;;;;;;;8.47;5.50;;;6.70;32.40;;;;;;5011121;28;20193;-80
2022/03/12 10:32:50;;;;;;;8.27;5.50;;;6.90;32.30;;;;;;5005753;28;20247;-78
2022/03/12 10:35:20;;;;;;;7.43;4.57;;;6.90;32.50;;;;;;5013500;28;20193;-76
2022/03/12 10:37:48;;;;;;;8.23;5.17;;;7.00;32.90;;;;;;4997048;28;20306;-77
2022/03/12 10:40:25;;;;;;;9.30;6.03;;;7.20;32.40;;;;;;5006034;28;20242;-73
2022/03/12 10:42:59;;;;;;;9.47;7.03;;;7.30;32.30;;;;;;5011593;28;20340;-76
2022/03/12 10:45:30;;;;;;;10.23;5.67;;;7.30;32.50;;;;;;4987076;28;20711;-75
2022/03/12 10:47:58;;;;;;;8.23;5.17;;;7.60;32.10;;;;;;5004119;28;20222;-69
2022/03/12 10:50:31;;;;;;;9.83;5.70;;;7.80;32.10;;;;;;5007106;28;20253;-69
2022/03/12 10:52:58;;;;;;;7.03;5.20;;;8.00;31.50;;;;;;5013785;28;20246;-69
2022/03/12 10:55:29;;;;;;;8.37;5.53;;;8.20;31.80;;;;;;5022495;28;20274;-69
2022/03/12 10:57:58;;;;;;;9.07;5.60;;;8.30;31.20;;;;;;5002186;28;20226;-69
2022/03/12 11:00:28;;;;;;;9.43;5.30;;;8.50;30.90;;;;;;5009657;28;20286;-69
2022/03/12 11:02:56;;;;;;;6.80;4.77;;;8.70;30.40;;;;;;5008760;28;20557;-69
2022/03/12 11:05:34;;;;;;;7.50;5.13;;;8.90;30.70;;;;;;5005859;28;20189;-69
2022/03/12 11:08:15;;;;;;;8.57;4.87;;;9.00;30.00;;;;;;4974673;28;20619;-70
2022/03/12 11:10:52;;;;;;;8.70;4.37;;;8.90;29.60;;;;;;5013140;28;20258;-69
2022/03/12 11:13:27;;;;;;;8.27;5.23;;;9.20;30.00;;;;;;5011647;28;21070;-69
2022/03/12 11:16:13;;;;;;;8.40;4.57;;;9.50;29.70;;;;;;5018333;28;20584;-70
2022/03/12 11:18:53;;;;;;;5.77;4.10;;;9.60;28.90;;;;;;5009447;28;20216;-69
2022/03/12 11:21:39;;;;;;;8.40;5.07;;;9.70;28.50;;;;;;5013325;28;20181;-69
2022/03/12 11:24:07;;;;;;;8.50;4.83;;;9.80;28.30;;;;;;5007319;28;20196;-67
2022/03/12 11:26:48;;;;;;;8.73;5.13;;;10.00;27.70;;;;;;5009605;28;20782;-74
2022/03/12 11:29:15;;;;;;;9.40;5.30;;;10.20;27.60;;;;;;5015754;28;20211;-67
2022/03/12 11:31:52;;;;;;;7.23;5.07;;;10.10;27.20;;;;;;5014254;28;20234;-69
2022/03/12 11:34:23;;;;;;;8.17;6.47;;;10.20;27.30;;;;;;5010447;28;20211;-69
2022/03/12 11:37:00;;;;;;;7.00;6.23;;;10.30;27.00;;;;;;5009348;28;20190;-71
2022/03/12 11:39:31;;;;;;;6.90;4.20;;;10.30;27.20;;;;;;5009065;28;20250;-69
2022/03/12 11:42:07;;;;;;;6.63;4.73;;;10.60;27.80;;;;;;5010147;28;20228;-69
2022/03/12 11:44:35;;;;;;;4.97;4.03;;;10.90;27.00;;;;;;5005757;28;20262;-70
2022/03/12 11:47:01;;;;;;;7.43;5.10;;;11.10;27.40;;;;;;5016727;28;20189;-70
2022/03/12 11:49:27;;;;;;;6.00;4.40;;;11.40;27.20;;;;;;5014357;28;20206;-68
2022/03/12 11:51:52;;;;;;;4.97;4.10;;;11.30;27.00;;;;;;5011663;28;20666;-70
2022/03/12 11:54:19;;;;;;;8.40;4.70;;;11.50;26.70;;;;;;5012011;28;20194;-71
2022/03/12 11:56:44;;;;;;;7.03;4.63;;;11.60;26.70;;;;;;5013979;28;20692;-70
2022/03/12 11:59:10;;;;;;;4.80;4.07;;;11.70;26.40;;;;;;5010084;28;20219;-69
2022/03/12 12:01:37;;;;;;;6.37;4.40;;;11.90;26.60;;;;;;5012679;28;20197;-71
2022/03/12 12:04:04;;;;;;;6.80;4.70;;;12.00;25.70;;;;;;5006244;28;20188;-71
2022/03/12 12:06:29;;;;;;;4.47;4.07;;;11.90;26.50;;;;;;5010557;28;20555;-70
2022/03/12 12:08:55;;;;;;;5.27;4.43;;;12.20;26.20;;;;;;5021242;28;20689;-71
2022/03/12 12:11:21;;;;;;;6.63;4.50;;;11.70;25.60;;;;;;5004972;28;20866;-70
2022/03/12 12:13:46;;;;;;;4.33;3.83;;;11.90;26.00;;;;;;5015248;28;20183;-70
2022/03/12 12:16:12;;;;;;;7.60;3.50;;;12.20;25.50;;;;;;5004274;28;20290;-70
2022/03/12 12:18:38;;;;;;;5.30;4.30;;;12.10;25.60;;;;;;5019647;28;20578;-70
2022/03/12 12:21:04;;;;;;;7.37;4.63;;;12.60;26.00;;;;;;5011163;28;20283;-71
2022/03/12 12:23:29;;;;;;;6.77;4.77;;;13.00;25.60;;;;;;4958649;28;20196;-70
2022/03/12 12:26:08;;;;;;;5.23;3.77;;;13.10;26.00;;;;;;5013002;28;20775;-70
2022/03/12 12:28:49;;;;;;;4.97;3.97;;;13.30;25.50;;;;;;5006306;28;20229;-70
2022/03/12 12:31:23;;;;;;;11.80;4.93;;;13.10;25.30;;;;;;5004956;28;20290;-70
2022/03/12 12:33:49;;;;;;;5.77;5.00;;;13.20;25.30;;;;;;5017688;28;20275;-70
2022/03/12 12:36:17;;;;;;;5.87;4.40;;;13.20;25.20;;;;;;5017079;28;20195;-70
2022/03/12 12:39:10;;;;;;;6.73;4.23;;;13.50;25.00;;;;;;5016354;28;20704;-74
2022/03/12 12:41:52;;;;;;;6.57;3.97;;;13.60;25.50;;;;;;5002499;28;20549;-72
2022/03/12 12:44:39;;;;;;;6.30;4.23;;;13.60;25.50;;;;;;5012408;28;20219;-74
2022/03/12 12:47:06;;;;;;;6.07;4.17;;;14.00;25.50;;;;;;5005971;28;20224;-73
2022/03/12 12:49:40;;;;;;;5.00;3.70;;;14.50;25.20;;;;;;5013801;28;20279;-73
2022/03/12 12:52:06;;;;;;;5.33;4.60;;;14.50;24.70;;;;;;4992741;28;20610;-73